sensor_id;sensor_type;location;lat;lon;timestamp;temperature;humidity
56298;DHT22;42208;6.376;-10.782;2023-05-07T00:00:06;26.30;99.90
56298;DHT22;42208;6.376;-10.782;2023-05-07T00:02:35;26.30;99.90
56298;DHT22;42208;6.376;-10.782;2023-05-07T00:05:05;26.30;99.90
56298;DHT22;42208;6.376;-10.782;2023-05-07T00:07:33;26.30;99.90
56298;DHT22;42208;6.376;-10.782;2023-05-07T00:10:02;26.30;99.90
56298;DHT22;42208;6.376;-10.782;2023-05-07T00:12:31;26.30;99.90
56298;DHT22;42208;6.376;-10.782;2023-05-07T00:15:02;26.30;99.90
56298;DHT22;42208;6.376;-10.782;2023-05-07T00:17:30;26.30;99.90
56298;DHT22;42208;6.376;-10.782;2023-05-07T00:19:59;26.30;99.90
56298;DHT22;42208;6.376;-10.782;2023-05-07T00:22:27;26.30;99.90
56298;DHT22;42208;6.376;-10.782;2023-05-07T00:24:56;26.20;99.90
56298;DHT22;42208;6.376;-10.782;2023-05-07T00:27:25;26.20;99.90
56298;DHT22;42208;6.376;-10.782;2023-05-07T00:29:53;26.20;99.90
56298;DHT22;42208;6.376;-10.782;2023-05-07T00:32:21;26.20;99.90
56298;DHT22;42208;6.376;-10.782;2023-05-07T00:34:50;26.20;99.90
56298;DHT22;42208;6.376;-10.782;2023-05-07T00:37:18;26.20;99.90
56298;DHT22;42208;6.376;-10.782;2023-05-07T00:39:47;26.20;99.90
56298;DHT22;42208;6.376;-10.782;2023-05-07T00:42:15;26.20;99.90
56298;DHT22;42208;6.376;-10.782;2023-05-07T00:44:44;26.20;99.90
56298;DHT22;42208;6.376;-10.782;2023-05-07T00:47:12;26.20;99.90
56298;DHT22;42208;6.376;-10.782;2023-05-07T00:49:44;26.20;99.90
56298;DHT22;42208;6.376;-10.782;2023-05-07T00:52:15;26.20;99.90
56298;DHT22;42208;6.376;-10.782;2023-05-07T00:54:44;26.20;99.90
56298;DHT22;42208;6.376;-10.782;2023-05-07T00:57:13;26.10;99.90
56298;DHT22;42208;6.376;-10.782;2023-05-07T00:59:41;26.10;99.90
56298;DHT22;42208;6.376;-10.782;2023-05-07T01:02:10;26.00;99.90
56298;DHT22;42208;6.376;-10.782;2023-05-07T01:04:39;26.10;99.90
56298;DHT22;42208;6.376;-10.782;2023-05-07T01:07:08;26.00;99.90
56298;DHT22;42208;6.376;-10.782;2023-05-07T01:09:36;26.00;99.90
56298;DHT22;42208;6.376;-10.782;2023-05-07T01:12:06;26.00;99.90
56298;DHT22;42208;6.376;-10.782;2023-05-07T01:14:35;26.00;99.90
56298;DHT22;42208;6.376;-10.782;2023-05-07T01:17:03;26.00;99.90
56298;DHT22;42208;6.376;-10.782;2023-05-07T01:19:32;26.00;99.90
56298;DHT22;42208;6.376;-10.782;2023-05-07T01:22:08;25.90;99.90
56298;DHT22;42208;6.376;-10.782;2023-05-07T01:24:46;26.00;99.90
56298;DHT22;42208;6.376;-10.782;2023-05-07T01:27:16;26.00;99.90
56298;DHT22;42208;6.376;-10.782;2023-05-07T01:29:46;26.00;99.90
56298;DHT22;42208;6.376;-10.782;2023-05-07T01:32:18;25.90;99.90
56298;DHT22;42208;6.376;-10.782;2023-05-07T01:34:50;26.00;99.90
56298;DHT22;42208;6.376;-10.782;2023-05-07T01:37:20;26.00;99.90
56298;DHT22;42208;6.376;-10.782;2023-05-07T01:39:49;26.00;99.90
56298;DHT22;42208;6.376;-10.782;2023-05-07T01:42:18;25.90;99.90
56298;DHT22;42208;6.376;-10.782;2023-05-07T01:44:46;25.90;99.90
56298;DHT22;42208;6.376;-10.782;2023-05-07T01:47:15;25.90;99.90
56298;DHT22;42208;6.376;-10.782;2023-05-07T01:49:44;25.90;99.90
56298;DHT22;42208;6.376;-10.782;2023-05-07T01:52:12;25.90;99.90
56298;DHT22;42208;6.376;-10.782;2023-05-07T01:54:40;26.00;99.90
56298;DHT22;42208;6.376;-10.782;2023-05-07T01:57:09;25.90;99.90
56298;DHT22;42208;6.376;-10.782;2023-05-07T01:59:38;25.90;99.90
56298;DHT22;42208;6.376;-10.782;2023-05-07T02:02:06;26.00;99.90
56298;DHT22;42208;6.376;-10.782;2023-05-07T02:04:36;26.00;99.90
56298;DHT22;42208;6.376;-10.782;2023-05-07T02:07:04;25.90;99.90
56298;DHT22;42208;6.376;-10.782;2023-05-07T02:09:33;25.90;99.90
56298;DHT22;42208;6.376;-10.782;2023-05-07T02:12:02;25.90;99.90
56298;DHT22;42208;6.376;-10.782;2023-05-07T02:14:30;25.90;99.90
56298;DHT22;42208;6.376;-10.782;2023-05-07T02:16:58;25.90;99.90
56298;DHT22;42208;6.376;-10.782;2023-05-07T02:19:27;25.90;99.90
56298;DHT22;42208;6.376;-10.782;2023-05-07T02:21:55;25.90;99.90
56298;DHT22;42208;6.376;-10.782;2023-05-07T02:24:23;25.90;99.90
56298;DHT22;42208;6.376;-10.782;2023-05-07T02:26:52;25.90;99.90
56298;DHT22;42208;6.376;-10.782;2023-05-07T02:29:20;25.90;99.90
56298;DHT22;42208;6.376;-10.782;2023-05-07T02:31:49;25.90;99.90
56298;DHT22;42208;6.376;-10.782;2023-05-07T02:34:17;25.90;99.90
56298;DHT22;42208;6.376;-10.782;2023-05-07T02:36:46;25.90;99.90
56298;DHT22;42208;6.376;-10.782;2023-05-07T02:39:18;25.90;99.90
56298;DHT22;42208;6.376;-10.782;2023-05-07T02:41:46;25.90;99.90
56298;DHT22;42208;6.376;-10.782;2023-05-07T02:44:15;25.90;99.90
56298;DHT22;42208;6.376;-10.782;2023-05-07T02:46:47;25.90;99.90
56298;DHT22;42208;6.376;-10.782;2023-05-07T02:49:15;25.90;99.90
56298;DHT22;42208;6.376;-10.782;2023-05-07T02:51:43;25.90;99.90
56298;DHT22;42208;6.376;-10.782;2023-05-07T02:54:18;25.90;99.90
56298;DHT22;42208;6.376;-10.782;2023-05-07T02:56:46;25.80;99.90
56298;DHT22;42208;6.376;-10.782;2023-05-07T02:59:15;25.70;99.90
56298;DHT22;42208;6.376;-10.782;2023-05-07T03:01:43;25.70;99.90
56298;DHT22;42208;6.376;-10.782;2023-05-07T03:04:12;25.70;99.90
56298;DHT22;42208;6.376;-10.782;2023-05-07T03:06:41;25.70;99.90
56298;DHT22;42208;6.376;-10.782;2023-05-07T03:09:09;25.70;99.90
56298;DHT22;42208;6.376;-10.782;2023-05-07T03:11:37;25.70;99.90
56298;DHT22;42208;6.376;-10.782;2023-05-07T03:14:05;25.80;99.90
56298;DHT22;42208;6.376;-10.782;2023-05-07T03:16:34;25.80;99.90
56298;DHT22;42208;6.376;-10.782;2023-05-07T03:19:03;25.80;99.90
56298;DHT22;42208;6.376;-10.782;2023-05-07T03:21:31;25.90;99.90
56298;DHT22;42208;6.376;-10.782;2023-05-07T03:23:59;25.80;99.90
56298;DHT22;42208;6.376;-10.782;2023-05-07T03:26:28;25.80;99.90
56298;DHT22;42208;6.376;-10.782;2023-05-07T03:28:56;25.90;99.90
56298;DHT22;42208;6.376;-10.782;2023-05-07T03:31:24;25.90;99.90
56298;DHT22;42208;6.376;-10.782;2023-05-07T03:33:54;25.90;99.90
56298;DHT22;42208;6.376;-10.782;2023-05-07T03:36:24;26.00;99.90
56298;DHT22;42208;6.376;-10.782;2023-05-07T03:38:53;25.90;99.90
56298;DHT22;42208;6.376;-10.782;2023-05-07T03:41:24;25.80;99.90
56298;DHT22;42208;6.376;-10.782;2023-05-07T03:43:52;25.90;99.90
56298;DHT22;42208;6.376;-10.782;2023-05-07T03:46:21;25.80;99.90
56298;DHT22;42208;6.376;-10.782;2023-05-07T03:48:50;25.80;99.90
56298;DHT22;42208;6.376;-10.782;2023-05-07T03:51:20;25.80;99.90
56298;DHT22;42208;6.376;-10.782;2023-05-07T03:53:48;25.80;99.90
56298;DHT22;42208;6.376;-10.782;2023-05-07T03:56:16;25.80;99.90
56298;DHT22;42208;6.376;-10.782;2023-05-07T03:58:47;25.80;99.90
56298;DHT22;42208;6.376;-10.782;2023-05-07T04:01:16;25.80;99.90
56298;DHT22;42208;6.376;-10.782;2023-05-07T04:03:44;25.80;99.90
56298;DHT22;42208;6.376;-10.782;2023-05-07T04:06:13;25.80;99.90
56298;DHT22;42208;6.376;-10.782;2023-05-07T04:08:44;25.80;99.90
56298;DHT22;42208;6.376;-10.782;2023-05-07T04:11:13;25.80;99.90
56298;DHT22;42208;6.376;-10.782;2023-05-07T04:13:41;25.80;99.90
56298;DHT22;42208;6.376;-10.782;2023-05-07T04:16:10;25.70;99.90
56298;DHT22;42208;6.376;-10.782;2023-05-07T04:18:39;25.80;99.90
56298;DHT22;42208;6.376;-10.782;2023-05-07T04:21:15;25.70;99.90
56298;DHT22;42208;6.376;-10.782;2023-05-07T04:23:44;25.70;99.90
56298;DHT22;42208;6.376;-10.782;2023-05-07T04:26:13;25.80;99.90
56298;DHT22;42208;6.376;-10.782;2023-05-07T04:28:43;25.70;99.90
56298;DHT22;42208;6.376;-10.782;2023-05-07T04:31:12;25.80;99.90
56298;DHT22;42208;6.376;-10.782;2023-05-07T04:33:40;25.70;99.90
56298;DHT22;42208;6.376;-10.782;2023-05-07T04:36:12;25.70;99.90
56298;DHT22;42208;6.376;-10.782;2023-05-07T04:38:49;25.70;99.90
56298;DHT22;42208;6.376;-10.782;2023-05-07T04:41:19;25.70;99.90
56298;DHT22;42208;6.376;-10.782;2023-05-07T04:43:48;25.70;99.90
56298;DHT22;42208;6.376;-10.782;2023-05-07T04:46:18;25.70;99.90
56298;DHT22;42208;6.376;-10.782;2023-05-07T04:48:48;25.70;99.90
56298;DHT22;42208;6.376;-10.782;2023-05-07T04:51:16;25.80;99.90
56298;DHT22;42208;6.376;-10.782;2023-05-07T04:53:44;25.80;99.90
56298;DHT22;42208;6.376;-10.782;2023-05-07T04:56:13;25.80;99.90
56298;DHT22;42208;6.376;-10.782;2023-05-07T04:58:43;25.80;99.90
56298;DHT22;42208;6.376;-10.782;2023-05-07T05:01:12;25.70;99.90
56298;DHT22;42208;6.376;-10.782;2023-05-07T05:03:41;25.70;99.90
56298;DHT22;42208;6.376;-10.782;2023-05-07T05:06:10;25.70;99.90
56298;DHT22;42208;6.376;-10.782;2023-05-07T05:08:38;25.70;99.90
56298;DHT22;42208;6.376;-10.782;2023-05-07T05:11:06;25.70;99.90
56298;DHT22;42208;6.376;-10.782;2023-05-07T05:13:36;25.70;99.90
56298;DHT22;42208;6.376;-10.782;2023-05-07T05:16:15;25.70;99.90
56298;DHT22;42208;6.376;-10.782;2023-05-07T05:18:43;25.70;99.90
56298;DHT22;42208;6.376;-10.782;2023-05-07T05:21:14;25.70;99.90
56298;DHT22;42208;6.376;-10.782;2023-05-07T05:23:45;25.70;99.90
56298;DHT22;42208;6.376;-10.782;2023-05-07T05:26:17;25.70;99.90
56298;DHT22;42208;6.376;-10.782;2023-05-07T05:28:45;25.70;99.90
56298;DHT22;42208;6.376;-10.782;2023-05-07T05:31:16;25.60;99.90
56298;DHT22;42208;6.376;-10.782;2023-05-07T05:33:45;25.60;99.90
56298;DHT22;42208;6.376;-10.782;2023-05-07T05:36:14;25.60;99.90
56298;DHT22;42208;6.376;-10.782;2023-05-07T05:38:44;25.60;99.90
56298;DHT22;42208;6.376;-10.782;2023-05-07T05:41:13;25.60;99.90
56298;DHT22;42208;6.376;-10.782;2023-05-07T05:43:41;25.60;99.90
56298;DHT22;42208;6.376;-10.782;2023-05-07T05:46:10;25.60;99.90
56298;DHT22;42208;6.376;-10.782;2023-05-07T05:48:39;25.60;99.90
56298;DHT22;42208;6.376;-10.782;2023-05-07T05:51:10;25.60;99.90
56298;DHT22;42208;6.376;-10.782;2023-05-07T05:53:38;25.70;99.90
56298;DHT22;42208;6.376;-10.782;2023-05-07T05:56:07;25.70;99.90
56298;DHT22;42208;6.376;-10.782;2023-05-07T05:58:36;25.60;99.90
56298;DHT22;42208;6.376;-10.782;2023-05-07T06:01:07;25.70;99.90
56298;DHT22;42208;6.376;-10.782;2023-05-07T06:03:36;25.70;99.90
56298;DHT22;42208;6.376;-10.782;2023-05-07T06:06:10;25.70;99.90
56298;DHT22;42208;6.376;-10.782;2023-05-07T06:08:39;25.70;99.90
56298;DHT22;42208;6.376;-10.782;2023-05-07T06:11:09;25.70;99.90
56298;DHT22;42208;6.376;-10.782;2023-05-07T06:13:40;25.70;99.90
56298;DHT22;42208;6.376;-10.782;2023-05-07T06:16:08;25.70;99.90
56298;DHT22;42208;6.376;-10.782;2023-05-07T06:18:37;25.60;99.90
56298;DHT22;42208;6.376;-10.782;2023-05-07T06:21:06;25.60;99.90
56298;DHT22;42208;6.376;-10.782;2023-05-07T06:23:35;25.60;99.90
56298;DHT22;42208;6.376;-10.782;2023-05-07T06:26:04;25.60;99.90
56298;DHT22;42208;6.376;-10.782;2023-05-07T06:28:38;25.60;99.90
56298;DHT22;42208;6.376;-10.782;2023-05-07T06:31:16;25.60;99.90
56298;DHT22;42208;6.376;-10.782;2023-05-07T06:33:50;25.60;99.90
56298;DHT22;42208;6.376;-10.782;2023-05-07T06:36:19;25.60;99.90
56298;DHT22;42208;6.376;-10.782;2023-05-07T06:38:47;25.60;99.90
56298;DHT22;42208;6.376;-10.782;2023-05-07T06:41:15;25.50;99.90
56298;DHT22;42208;6.376;-10.782;2023-05-07T06:43:44;25.60;99.90
56298;DHT22;42208;6.376;-10.782;2023-05-07T06:46:40;25.60;99.90
56298;DHT22;42208;6.376;-10.782;2023-05-07T06:49:09;25.60;99.90
56298;DHT22;42208;6.376;-10.782;2023-05-07T06:51:38;25.60;99.90
56298;DHT22;42208;6.376;-10.782;2023-05-07T06:54:06;25.60;99.90
56298;DHT22;42208;6.376;-10.782;2023-05-07T06:56:37;25.50;99.90
56298;DHT22;42208;6.376;-10.782;2023-05-07T06:59:06;25.50;99.90
56298;DHT22;42208;6.376;-10.782;2023-05-07T07:01:39;25.50;99.90
56298;DHT22;42208;6.376;-10.782;2023-05-07T07:04:08;25.50;99.90
56298;DHT22;42208;6.376;-10.782;2023-05-07T07:06:39;25.60;99.90
56298;DHT22;42208;6.376;-10.782;2023-05-07T07:09:10;25.60;99.90
56298;DHT22;42208;6.376;-10.782;2023-05-07T07:11:40;25.60;99.90
56298;DHT22;42208;6.376;-10.782;2023-05-07T07:14:08;25.70;99.90
56298;DHT22;42208;6.376;-10.782;2023-05-07T07:16:44;25.60;99.90
56298;DHT22;42208;6.376;-10.782;2023-05-07T07:19:13;25.60;99.90
56298;DHT22;42208;6.376;-10.782;2023-05-07T07:21:42;25.60;99.90
56298;DHT22;42208;6.376;-10.782;2023-05-07T07:24:14;25.60;99.90
56298;DHT22;42208;6.376;-10.782;2023-05-07T07:26:42;25.60;99.90
56298;DHT22;42208;6.376;-10.782;2023-05-07T07:29:10;25.60;99.90
56298;DHT22;42208;6.376;-10.782;2023-05-07T07:31:40;25.60;99.90
56298;DHT22;42208;6.376;-10.782;2023-05-07T07:34:09;25.70;99.90
56298;DHT22;42208;6.376;-10.782;2023-05-07T07:36:38;25.60;99.90
56298;DHT22;42208;6.376;-10.782;2023-05-07T07:39:16;25.70;99.90
56298;DHT22;42208;6.376;-10.782;2023-05-07T07:41:47;25.70;99.90
56298;DHT22;42208;6.376;-10.782;2023-05-07T07:44:16;25.70;99.90
56298;DHT22;42208;6.376;-10.782;2023-05-07T07:46:49;25.80;99.90
56298;DHT22;42208;6.376;-10.782;2023-05-07T07:49:18;25.70;99.90
56298;DHT22;42208;6.376;-10.782;2023-05-07T07:51:47;25.80;99.90
56298;DHT22;42208;6.376;-10.782;2023-05-07T07:54:16;25.90;99.90
56298;DHT22;42208;6.376;-10.782;2023-05-07T07:56:45;25.90;99.90
56298;DHT22;42208;6.376;-10.782;2023-05-07T07:59:14;25.90;99.90
56298;DHT22;42208;6.376;-10.782;2023-05-07T08:01:43;25.90;99.90
56298;DHT22;42208;6.376;-10.782;2023-05-07T08:04:11;25.90;99.90
56298;DHT22;42208;6.376;-10.782;2023-05-07T08:06:42;26.00;99.90
56298;DHT22;42208;6.376;-10.782;2023-05-07T08:09:10;26.00;99.90
56298;DHT22;42208;6.376;-10.782;2023-05-07T08:11:41;26.10;99.90
56298;DHT22;42208;6.376;-10.782;2023-05-07T08:14:09;26.10;99.90
56298;DHT22;42208;6.376;-10.782;2023-05-07T08:16:38;26.10;99.90
56298;DHT22;42208;6.376;-10.782;2023-05-07T08:19:07;26.10;99.90
56298;DHT22;42208;6.376;-10.782;2023-05-07T08:21:39;26.10;99.90
56298;DHT22;42208;6.376;-10.782;2023-05-07T08:24:09;26.20;99.90
56298;DHT22;42208;6.376;-10.782;2023-05-07T08:26:38;26.20;99.90
56298;DHT22;42208;6.376;-10.782;2023-05-07T08:29:07;26.20;99.90
56298;DHT22;42208;6.376;-10.782;2023-05-07T08:31:35;26.30;99.90
56298;DHT22;42208;6.376;-10.782;2023-05-07T08:34:04;26.30;99.90
56298;DHT22;42208;6.376;-10.782;2023-05-07T08:36:38;26.30;99.90
56298;DHT22;42208;6.376;-10.782;2023-05-07T08:39:07;26.40;99.90
56298;DHT22;42208;6.376;-10.782;2023-05-07T08:41:35;26.40;99.90
56298;DHT22;42208;6.376;-10.782;2023-05-07T08:44:06;26.40;99.90
56298;DHT22;42208;6.376;-10.782;2023-05-07T08:46:41;26.40;99.90
56298;DHT22;42208;6.376;-10.782;2023-05-07T08:49:10;26.40;99.90
56298;DHT22;42208;6.376;-10.782;2023-05-07T08:51:38;26.40;99.90
56298;DHT22;42208;6.376;-10.782;2023-05-07T08:54:07;26.40;99.90
56298;DHT22;42208;6.376;-10.782;2023-05-07T08:56:37;26.40;99.90
56298;DHT22;42208;6.376;-10.782;2023-05-07T08:59:05;26.40;99.90
56298;DHT22;42208;6.376;-10.782;2023-05-07T09:01:34;26.50;99.90
56298;DHT22;42208;6.376;-10.782;2023-05-07T09:04:03;26.50;99.90
56298;DHT22;42208;6.376;-10.782;2023-05-07T09:06:33;26.50;99.90
56298;DHT22;42208;6.376;-10.782;2023-05-07T09:09:02;26.50;99.90
56298;DHT22;42208;6.376;-10.782;2023-05-07T09:11:30;26.50;99.90
56298;DHT22;42208;6.376;-10.782;2023-05-07T09:14:00;26.50;99.90
56298;DHT22;42208;6.376;-10.782;2023-05-07T09:16:34;26.50;99.90
56298;DHT22;42208;6.376;-10.782;2023-05-07T09:19:03;26.60;99.90
56298;DHT22;42208;6.376;-10.782;2023-05-07T09:21:33;26.60;99.90
56298;DHT22;42208;6.376;-10.782;2023-05-07T09:24:05;26.60;99.90
56298;DHT22;42208;6.376;-10.782;2023-05-07T09:26:39;26.70;99.90
56298;DHT22;42208;6.376;-10.782;2023-05-07T09:29:10;26.70;99.90
56298;DHT22;42208;6.376;-10.782;2023-05-07T09:31:39;26.70;99.90
56298;DHT22;42208;6.376;-10.782;2023-05-07T09:34:12;26.80;99.90
56298;DHT22;42208;6.376;-10.782;2023-05-07T09:36:44;26.80;99.90
56298;DHT22;42208;6.376;-10.782;2023-05-07T09:39:13;26.80;99.90
56298;DHT22;42208;6.376;-10.782;2023-05-07T09:41:46;26.90;99.90
56298;DHT22;42208;6.376;-10.782;2023-05-07T09:44:21;26.90;99.90
56298;DHT22;42208;6.376;-10.782;2023-05-07T09:46:54;26.90;99.90
56298;DHT22;42208;6.376;-10.782;2023-05-07T09:49:34;27.00;99.90
56298;DHT22;42208;6.376;-10.782;2023-05-07T09:52:07;27.00;99.90
56298;DHT22;42208;6.376;-10.782;2023-05-07T09:54:39;27.00;99.90
56298;DHT22;42208;6.376;-10.782;2023-05-07T09:57:10;27.00;99.90
56298;DHT22;42208;6.376;-10.782;2023-05-07T09:59:42;27.10;99.90
56298;DHT22;42208;6.376;-10.782;2023-05-07T10:02:14;27.20;99.90
56298;DHT22;42208;6.376;-10.782;2023-05-07T10:04:53;27.20;99.90
56298;DHT22;42208;6.376;-10.782;2023-05-07T10:07:27;27.20;99.90
56298;DHT22;42208;6.376;-10.782;2023-05-07T10:10:05;27.30;99.90
56298;DHT22;42208;6.376;-10.782;2023-05-07T10:12:41;27.40;99.90
56298;DHT22;42208;6.376;-10.782;2023-05-07T10:15:16;27.40;99.90
56298;DHT22;42208;6.376;-10.782;2023-05-07T10:17:51;27.50;99.90
56298;DHT22;42208;6.376;-10.782;2023-05-07T10:20:23;27.50;99.90
56298;DHT22;42208;6.376;-10.782;2023-05-07T10:22:56;27.50;99.90
56298;DHT22;42208;6.376;-10.782;2023-05-07T10:25:33;27.60;99.90
56298;DHT22;42208;6.376;-10.782;2023-05-07T10:28:10;27.60;99.90
56298;DHT22;42208;6.376;-10.782;2023-05-07T10:34:12;27.70;99.90
56298;DHT22;42208;6.376;-10.782;2023-05-07T10:36:41;27.80;99.90
56298;DHT22;42208;6.376;-10.782;2023-05-07T10:41:03;27.80;99.90
56298;DHT22;42208;6.376;-10.782;2023-05-07T10:43:45;27.90;99.90
56298;DHT22;42208;6.376;-10.782;2023-05-07T10:48:15;28.00;99.90
56298;DHT22;42208;6.376;-10.782;2023-05-07T10:53:20;28.10;99.90
56298;DHT22;42208;6.376;-10.782;2023-05-07T10:58:52;28.20;99.90
56298;DHT22;42208;6.376;-10.782;2023-05-07T11:01:54;28.20;99.90
56298;DHT22;42208;6.376;-10.782;2023-05-07T11:05:22;28.40;99.90
56298;DHT22;42208;6.376;-10.782;2023-05-07T11:08:07;28.50;99.90
56298;DHT22;42208;6.376;-10.782;2023-05-07T11:11:00;28.50;99.90
56298;DHT22;42208;6.376;-10.782;2023-05-07T11:13:46;28.70;99.90
56298;DHT22;42208;6.376;-10.782;2023-05-07T11:16:35;28.70;99.90
56298;DHT22;42208;6.376;-10.782;2023-05-07T11:25:10;28.90;99.90
56298;DHT22;42208;6.376;-10.782;2023-05-07T11:27:47;29.00;99.90
56298;DHT22;42208;6.376;-10.782;2023-05-07T11:30:19;28.90;99.90
56298;DHT22;42208;6.376;-10.782;2023-05-07T11:32:48;29.10;99.90
56298;DHT22;42208;6.376;-10.782;2023-05-07T11:35:18;29.10;99.90
56298;DHT22;42208;6.376;-10.782;2023-05-07T11:37:59;29.20;99.90
56298;DHT22;42208;6.376;-10.782;2023-05-07T11:40:29;29.20;99.90
56298;DHT22;42208;6.376;-10.782;2023-05-07T11:42:57;29.20;99.90
56298;DHT22;42208;6.376;-10.782;2023-05-07T11:45:25;29.30;99.90
56298;DHT22;42208;6.376;-10.782;2023-05-07T11:47:54;29.40;99.90
56298;DHT22;42208;6.376;-10.782;2023-05-07T11:50:22;29.40;99.90
56298;DHT22;42208;6.376;-10.782;2023-05-07T11:52:51;29.50;99.90
56298;DHT22;42208;6.376;-10.782;2023-05-07T11:55:20;29.50;99.90
56298;DHT22;42208;6.376;-10.782;2023-05-07T11:57:48;29.50;99.90
56298;DHT22;42208;6.376;-10.782;2023-05-07T12:00:17;29.50;99.90
56298;DHT22;42208;6.376;-10.782;2023-05-07T12:02:45;29.60;99.90
56298;DHT22;42208;6.376;-10.782;2023-05-07T12:05:16;29.50;99.90
56298;DHT22;42208;6.376;-10.782;2023-05-07T12:07:49;29.50;99.90
56298;DHT22;42208;6.376;-10.782;2023-05-07T12:10:25;29.50;99.90
56298;DHT22;42208;6.376;-10.782;2023-05-07T12:12:53;29.60;99.90
56298;DHT22;42208;6.376;-10.782;2023-05-07T12:15:24;29.70;99.90
56298;DHT22;42208;6.376;-10.782;2023-05-07T12:17:54;29.80;99.90
56298;DHT22;42208;6.376;-10.782;2023-05-07T12:20:22;29.80;99.90
56298;DHT22;42208;6.376;-10.782;2023-05-07T12:22:51;29.90;99.90
56298;DHT22;42208;6.376;-10.782;2023-05-07T12:25:20;30.00;99.90
56298;DHT22;42208;6.376;-10.782;2023-05-07T12:27:57;30.00;99.90
56298;DHT22;42208;6.376;-10.782;2023-05-07T12:30:25;30.00;99.90
56298;DHT22;42208;6.376;-10.782;2023-05-07T12:32:54;29.80;99.90
56298;DHT22;42208;6.376;-10.782;2023-05-07T12:35:36;29.70;99.90
56298;DHT22;42208;6.376;-10.782;2023-05-07T12:38:08;29.60;99.90
56298;DHT22;42208;6.376;-10.782;2023-05-07T12:43:23;29.40;99.90
56298;DHT22;42208;6.376;-10.782;2023-05-07T12:45:55;29.30;99.90
56298;DHT22;42208;6.376;-10.782;2023-05-07T12:48:24;29.20;99.90
56298;DHT22;42208;6.376;-10.782;2023-05-07T12:50:54;29.10;99.90
56298;DHT22;42208;6.376;-10.782;2023-05-07T12:53:25;29.00;99.90
56298;DHT22;42208;6.376;-10.782;2023-05-07T12:55:56;28.90;99.90
56298;DHT22;42208;6.376;-10.782;2023-05-07T12:58:30;28.70;99.90
56298;DHT22;42208;6.376;-10.782;2023-05-07T13:01:04;28.60;99.90
56298;DHT22;42208;6.376;-10.782;2023-05-07T13:03:36;28.60;99.90
56298;DHT22;42208;6.376;-10.782;2023-05-07T13:06:08;28.60;99.90
56298;DHT22;42208;6.376;-10.782;2023-05-07T13:08:39;28.60;99.90
56298;DHT22;42208;6.376;-10.782;2023-05-07T13:11:09;28.60;99.90
56298;DHT22;42208;6.376;-10.782;2023-05-07T13:13:38;28.60;99.90
56298;DHT22;42208;6.376;-10.782;2023-05-07T13:16:09;28.60;99.90
56298;DHT22;42208;6.376;-10.782;2023-05-07T13:18:39;28.60;99.90
56298;DHT22;42208;6.376;-10.782;2023-05-07T13:21:08;28.70;99.90
56298;DHT22;42208;6.376;-10.782;2023-05-07T13:23:36;28.80;99.90
56298;DHT22;42208;6.376;-10.782;2023-05-07T13:26:04;28.90;99.90
56298;DHT22;42208;6.376;-10.782;2023-05-07T13:28:55;29.10;99.90
56298;DHT22;42208;6.376;-10.782;2023-05-07T13:31:24;29.20;99.90
56298;DHT22;42208;6.376;-10.782;2023-05-07T13:33:53;29.20;99.90
56298;DHT22;42208;6.376;-10.782;2023-05-07T13:36:23;29.40;99.90
56298;DHT22;42208;6.376;-10.782;2023-05-07T13:38:51;29.40;99.90
56298;DHT22;42208;6.376;-10.782;2023-05-07T13:41:19;29.40;99.90
56298;DHT22;42208;6.376;-10.782;2023-05-07T13:43:48;29.50;99.90
56298;DHT22;42208;6.376;-10.782;2023-05-07T13:46:17;29.60;99.90
56298;DHT22;42208;6.376;-10.782;2023-05-07T13:48:45;29.70;99.90
56298;DHT22;42208;6.376;-10.782;2023-05-07T13:51:13;29.70;99.90
56298;DHT22;42208;6.376;-10.782;2023-05-07T13:53:42;29.80;99.90
56298;DHT22;42208;6.376;-10.782;2023-05-07T13:56:10;29.90;99.90
56298;DHT22;42208;6.376;-10.782;2023-05-07T13:58:39;29.80;99.90
56298;DHT22;42208;6.376;-10.782;2023-05-07T14:01:23;29.80;99.90
56298;DHT22;42208;6.376;-10.782;2023-05-07T14:03:51;29.90;99.90
56298;DHT22;42208;6.376;-10.782;2023-05-07T14:06:19;29.80;99.90
56298;DHT22;42208;6.376;-10.782;2023-05-07T14:08:49;29.80;99.90
56298;DHT22;42208;6.376;-10.782;2023-05-07T14:11:17;29.80;99.90
56298;DHT22;42208;6.376;-10.782;2023-05-07T14:13:45;30.00;99.90
56298;DHT22;42208;6.376;-10.782;2023-05-07T14:16:15;30.10;99.90
56298;DHT22;42208;6.376;-10.782;2023-05-07T14:18:43;30.10;99.90
56298;DHT22;42208;6.376;-10.782;2023-05-07T14:21:11;30.10;99.90
56298;DHT22;42208;6.376;-10.782;2023-05-07T14:23:40;30.00;99.90
56298;DHT22;42208;6.376;-10.782;2023-05-07T14:26:08;30.00;99.90
56298;DHT22;42208;6.376;-10.782;2023-05-07T14:28:36;29.90;99.90
56298;DHT22;42208;6.376;-10.782;2023-05-07T14:31:05;29.90;99.90
56298;DHT22;42208;6.376;-10.782;2023-05-07T14:33:34;29.80;99.90
56298;DHT22;42208;6.376;-10.782;2023-05-07T14:36:02;29.80;99.90
56298;DHT22;42208;6.376;-10.782;2023-05-07T14:38:31;29.80;99.90
56298;DHT22;42208;6.376;-10.782;2023-05-07T14:40:59;29.90;99.90
56298;DHT22;42208;6.376;-10.782;2023-05-07T14:43:28;29.90;99.90
56298;DHT22;42208;6.376;-10.782;2023-05-07T14:45:56;29.90;99.90
56298;DHT22;42208;6.376;-10.782;2023-05-07T14:48:25;29.90;99.90
56298;DHT22;42208;6.376;-10.782;2023-05-07T14:50:53;29.90;99.90
56298;DHT22;42208;6.376;-10.782;2023-05-07T14:53:23;29.90;99.90
56298;DHT22;42208;6.376;-10.782;2023-05-07T14:55:52;30.00;99.90
56298;DHT22;42208;6.376;-10.782;2023-05-07T14:58:21;30.00;99.90
56298;DHT22;42208;6.376;-10.782;2023-05-07T15:00:50;30.00;99.90
56298;DHT22;42208;6.376;-10.782;2023-05-07T15:03:19;30.10;99.90
56298;DHT22;42208;6.376;-10.782;2023-05-07T15:05:48;30.10;99.90
56298;DHT22;42208;6.376;-10.782;2023-05-07T15:08:18;30.10;99.90
56298;DHT22;42208;6.376;-10.782;2023-05-07T15:10:50;30.10;99.90
56298;DHT22;42208;6.376;-10.782;2023-05-07T15:13:19;30.20;99.90
56298;DHT22;42208;6.376;-10.782;2023-05-07T15:15:47;30.20;99.90
56298;DHT22;42208;6.376;-10.782;2023-05-07T15:18:16;30.10;99.90
56298;DHT22;42208;6.376;-10.782;2023-05-07T15:20:49;30.00;99.90
56298;DHT22;42208;6.376;-10.782;2023-05-07T15:23:18;30.10;99.90
56298;DHT22;42208;6.376;-10.782;2023-05-07T15:25:48;30.10;99.90
56298;DHT22;42208;6.376;-10.782;2023-05-07T15:28:19;30.10;99.90
56298;DHT22;42208;6.376;-10.782;2023-05-07T15:30:47;30.10;99.90
56298;DHT22;42208;6.376;-10.782;2023-05-07T15:33:16;30.00;99.90
56298;DHT22;42208;6.376;-10.782;2023-05-07T15:35:44;30.00;99.90
56298;DHT22;42208;6.376;-10.782;2023-05-07T15:38:13;30.00;99.90
56298;DHT22;42208;6.376;-10.782;2023-05-07T15:40:43;29.90;99.90
56298;DHT22;42208;6.376;-10.782;2023-05-07T15:43:11;29.90;99.90
56298;DHT22;42208;6.376;-10.782;2023-05-07T15:45:40;29.90;99.90
56298;DHT22;42208;6.376;-10.782;2023-05-07T15:48:10;29.90;99.90
56298;DHT22;42208;6.376;-10.782;2023-05-07T15:50:38;29.90;99.90
56298;DHT22;42208;6.376;-10.782;2023-05-07T15:53:07;29.90;99.90
56298;DHT22;42208;6.376;-10.782;2023-05-07T15:55:36;30.00;99.90